createdAt,value
2022-11-06T00:00:54.505Z,10.94
2022-11-06T00:03:21.622Z,10.86
2022-11-06T00:06:06.957Z,10.86
2022-11-06T00:08:38.758Z,10.80
2022-11-06T00:11:13.688Z,10.70
2022-11-06T00:13:40.473Z,10.71
2022-11-06T00:16:08.959Z,10.69
2022-11-06T00:18:36.632Z,10.64
2022-11-06T00:21:08.759Z,10.68
2022-11-06T00:23:35.935Z,10.62
2022-11-06T00:26:09.465Z,10.59
2022-11-06T00:28:36.619Z,10.55
2022-11-06T00:31:10.322Z,10.60
2022-11-06T00:33:37.428Z,10.67
2022-11-06T00:36:06.081Z,10.74
2022-11-06T00:38:33.122Z,10.79
2022-11-06T00:41:14.446Z,10.74
2022-11-06T00:43:41.190Z,10.69
2022-11-06T00:46:11.591Z,10.66
2022-11-06T00:48:39.431Z,10.64
2022-11-06T00:51:20.470Z,10.61
2022-11-06T00:53:47.546Z,10.56
2022-11-06T00:56:16.489Z,10.47
2022-11-06T00:58:43.890Z,10.36
2022-11-06T01:01:16.136Z,10.27
2022-11-06T01:03:44.448Z,10.18
2022-11-06T01:06:13.956Z,10.14
2022-11-06T01:08:41.470Z,10.05
2022-11-06T01:11:13.851Z,9.96
2022-11-06T01:13:41.135Z,9.91
2022-11-06T01:16:10.864Z,9.90
2022-11-06T01:18:38.739Z,9.95
2022-11-06T01:21:16.680Z,10.04
2022-11-06T01:23:44.121Z,10.12
2022-11-06T01:26:12.501Z,10.14
2022-11-06T01:28:40.524Z,10.20
2022-11-06T01:31:13.382Z,10.27
2022-11-06T01:33:40.189Z,10.39
2022-11-06T01:36:14.305Z,10.56
2022-11-06T01:38:45.514Z,10.64
2022-11-06T01:41:18.446Z,10.72
2022-11-06T01:43:51.545Z,10.83
2022-11-06T01:46:19.828Z,10.94
2022-11-06T01:48:52.893Z,10.99
2022-11-06T01:51:20.630Z,10.98
2022-11-06T01:53:47.428Z,11.13
2022-11-06T01:56:14.917Z,11.32
2022-11-06T01:58:43.331Z,11.44
2022-11-06T02:01:13.462Z,11.58
2022-11-06T02:03:43.155Z,11.78
2022-11-06T02:06:10.285Z,11.93
2022-11-06T02:08:36.965Z,12.02
2022-11-06T02:11:03.790Z,12.09
2022-11-06T02:14:00.935Z,12.09
2022-11-06T02:17:00.994Z,11.99
2022-11-06T02:19:52.197Z,11.97
2022-11-06T02:23:16.384Z,11.90
2022-11-06T02:25:54.346Z,11.83
2022-11-06T02:28:21.038Z,11.81
2022-11-06T02:30:48.723Z,11.83
2022-11-06T02:33:29.359Z,11.98
2022-11-06T02:36:08.088Z,12.11
2022-11-06T02:38:40.060Z,12.34
2022-11-06T02:41:12.116Z,12.57
2022-11-06T02:43:42.200Z,12.67
2022-11-06T02:46:15.668Z,12.72
2022-11-06T02:48:46.423Z,12.80
2022-11-06T02:51:16.621Z,12.88
2022-11-06T02:53:44.398Z,13.02
2022-11-06T02:56:37.962Z,13.17
2022-11-06T02:59:20.692Z,13.25
2022-11-06T03:01:55.417Z,13.36
2022-11-06T03:04:27.911Z,13.34
2022-11-06T03:07:18.062Z,13.35
2022-11-06T03:09:45.052Z,13.30
2022-11-06T03:12:20.524Z,13.30
2022-11-06T03:14:52.791Z,13.24
2022-11-06T03:17:32.183Z,13.22
2022-11-06T03:20:31.134Z,13.23
2022-11-06T03:23:06.859Z,13.26
2022-11-06T03:26:00.210Z,13.24
2022-11-06T03:28:29.766Z,13.23
2022-11-06T03:30:59.690Z,13.24
2022-11-06T03:33:31.724Z,13.23
2022-11-06T03:36:20.942Z,13.21
2022-11-06T03:38:51.719Z,13.06
2022-11-06T03:41:31.469Z,13.01
2022-11-06T03:44:00.069Z,12.94
2022-11-06T03:46:28.387Z,12.82
2022-11-06T03:49:03.368Z,12.78
2022-11-06T03:51:47.811Z,12.64
2022-11-06T03:54:19.834Z,12.51
2022-11-06T03:56:58.357Z,12.42
2022-11-06T03:59:29.179Z,12.37
2022-11-06T04:01:56.362Z,12.36
2022-11-06T04:04:42.293Z,12.29
2022-11-06T04:07:12.639Z,12.32
2022-11-06T04:10:00.926Z,12.29
2022-11-06T04:12:48.784Z,12.24
2022-11-06T04:15:18.401Z,12.19
2022-11-06T04:17:45.225Z,12.06
2022-11-06T04:20:38.910Z,12.04
2022-11-06T04:23:32.967Z,12.01
2022-11-06T04:26:31.552Z,11.99
2022-11-06T04:29:21.050Z,11.95
2022-11-06T04:32:12.700Z,11.94
2022-11-06T04:35:04.352Z,11.91
2022-11-06T04:37:34.410Z,11.91
2022-11-06T04:40:32.662Z,11.89
2022-11-06T04:43:03.017Z,11.81
2022-11-06T04:45:45.788Z,11.76
2022-11-06T04:48:13.293Z,11.64
2022-11-06T04:50:44.862Z,11.58
2022-11-06T04:53:11.733Z,11.55
2022-11-06T04:55:51.166Z,11.56
2022-11-06T04:58:17.919Z,11.57
2022-11-06T05:00:49.812Z,11.54
2022-11-06T05:03:17.088Z,11.56
2022-11-06T05:05:44.070Z,11.54
2022-11-06T05:08:20.951Z,11.53
2022-11-06T05:10:48.557Z,11.53
2022-11-06T05:13:15.935Z,11.49
2022-11-06T05:15:42.923Z,11.44
2022-11-06T05:18:13.184Z,11.46
2022-11-06T05:20:40.046Z,11.42
2022-11-06T05:23:06.762Z,11.36
2022-11-06T05:25:36.191Z,11.36
2022-11-06T05:28:06.665Z,11.34
2022-11-06T05:30:34.922Z,11.36
2022-11-06T05:33:01.839Z,11.38
2022-11-06T05:35:28.589Z,11.38
2022-11-06T05:37:59.629Z,11.33
2022-11-06T05:40:26.366Z,11.33
2022-11-06T05:42:53.227Z,11.31
2022-11-06T05:45:19.965Z,11.29
2022-11-06T05:47:46.710Z,11.27
2022-11-06T05:50:13.479Z,11.30
2022-11-06T05:52:40.215Z,11.38
2022-11-06T05:55:11.644Z,11.38
2022-11-06T05:57:41.098Z,11.42
2022-11-06T06:00:08.902Z,11.41
2022-11-06T06:02:39.887Z,11.45
2022-11-06T06:05:07.544Z,11.54
2022-11-06T06:07:35.066Z,11.58
2022-11-06T06:10:01.948Z,11.57
2022-11-06T06:12:28.697Z,11.54
2022-11-06T06:14:55.643Z,11.50
2022-11-06T06:17:22.548Z,11.50
2022-11-06T06:19:49.303Z,11.48
2022-11-06T06:22:16.124Z,11.53
2022-11-06T06:24:43.211Z,11.57
2022-11-06T06:27:10.306Z,11.63
2022-11-06T06:29:37.110Z,11.62
2022-11-06T06:32:04.343Z,11.71
2022-11-06T06:34:31.128Z,11.80
2022-11-06T06:36:57.824Z,11.88
2022-11-06T06:39:24.622Z,11.95
2022-11-06T06:41:51.424Z,12.03
2022-11-06T06:44:18.158Z,12.11
2022-11-06T06:46:45.035Z,12.20
2022-11-06T06:49:11.919Z,12.25
2022-11-06T06:51:38.674Z,12.28
2022-11-06T06:54:05.509Z,12.33
2022-11-06T06:56:32.336Z,12.31
2022-11-06T06:58:59.058Z,12.31
2022-11-06T07:01:25.858Z,12.31
2022-11-06T07:03:52.703Z,12.34
2022-11-06T07:06:20.053Z,12.37
2022-11-06T07:08:46.860Z,12.45
2022-11-06T07:11:13.573Z,12.53
2022-11-06T07:13:40.480Z,12.61
2022-11-06T07:16:09.682Z,12.67
2022-11-06T07:18:37.326Z,12.73
2022-11-06T07:21:05.638Z,12.78
2022-11-06T07:23:32.228Z,12.87
2022-11-06T07:25:58.946Z,12.89
2022-11-06T07:28:25.650Z,12.92
2022-11-06T07:30:52.354Z,12.97
2022-11-06T07:33:19.093Z,13.00
2022-11-06T07:35:45.824Z,13.01
2022-11-06T07:38:12.866Z,13.06
2022-11-06T07:40:39.942Z,13.07
2022-11-06T07:43:08.140Z,13.08
2022-11-06T07:45:35.099Z,13.17
2022-11-06T07:48:02.295Z,13.21
2022-11-06T07:50:29.459Z,13.26
2022-11-06T07:52:56.475Z,13.30
2022-11-06T07:55:24.566Z,13.37
2022-11-06T07:57:51.287Z,13.38
2022-11-06T08:00:18.155Z,13.38
2022-11-06T08:02:44.912Z,13.41
2022-11-06T08:05:11.693Z,13.49
2022-11-06T08:07:38.452Z,13.48
2022-11-06T08:10:05.742Z,13.59
2022-11-06T08:12:32.434Z,13.61
2022-11-06T08:14:59.153Z,13.63
2022-11-06T08:17:25.996Z,13.71
2022-11-06T08:19:52.941Z,13.74
2022-11-06T08:22:19.685Z,13.79
2022-11-06T08:24:46.538Z,13.86
2022-11-06T08:27:13.237Z,13.87
2022-11-06T08:29:41.537Z,13.94
2022-11-06T08:32:08.840Z,13.99
2022-11-06T08:34:36.239Z,13.96
2022-11-06T08:37:03.218Z,13.92
2022-11-06T08:39:30.142Z,13.93
2022-11-06T08:41:56.917Z,13.95
2022-11-06T08:44:24.814Z,14.00
2022-11-06T08:46:52.270Z,13.91
2022-11-06T08:49:19.497Z,13.91
2022-11-06T08:51:46.284Z,13.87
2022-11-06T08:54:13.212Z,13.74
2022-11-06T08:56:40.212Z,13.71
2022-11-06T08:59:07.131Z,13.66
2022-11-06T09:01:33.944Z,13.68
2022-11-06T09:04:00.771Z,13.67
2022-11-06T09:06:27.546Z,13.65
2022-11-06T09:08:54.276Z,13.66
2022-11-06T09:11:21.098Z,13.69
2022-11-06T09:13:47.820Z,13.76
2022-11-06T09:16:16.238Z,13.77
2022-11-06T09:18:43.801Z,13.81
2022-11-06T09:21:10.590Z,13.94
2022-11-06T09:23:37.438Z,13.97
2022-11-06T09:26:04.501Z,14.04
2022-11-06T09:28:31.322Z,14.01
2022-11-06T09:30:58.050Z,14.04
2022-11-06T09:33:24.768Z,13.99
2022-11-06T09:35:51.666Z,13.99
2022-11-06T09:38:19.190Z,14.01
2022-11-06T09:40:52.790Z,14.08
2022-11-06T09:44:08.965Z,14.11
2022-11-06T09:46:46.242Z,14.09
2022-11-06T09:49:31.150Z,14.14
2022-11-06T09:52:08.509Z,14.16
2022-11-06T09:54:55.844Z,14.18
2022-11-06T09:57:49.382Z,14.19
2022-11-06T10:00:16.940Z,14.21
2022-11-06T10:02:45.984Z,14.20
2022-11-06T10:05:30.958Z,14.29
2022-11-06T10:08:00.751Z,14.36
2022-11-06T10:10:34.919Z,14.38
2022-11-06T10:13:06.734Z,14.39
2022-11-06T10:15:59.726Z,14.39
2022-11-06T10:18:29.308Z,14.37
2022-11-06T10:21:09.005Z,14.34
2022-11-06T10:23:50.608Z,14.33
2022-11-06T10:26:19.320Z,14.32
2022-11-06T10:28:51.975Z,14.32
2022-11-06T10:31:22.933Z,14.32
2022-11-06T10:34:22.737Z,14.30
2022-11-06T10:36:53.219Z,14.32
2022-11-06T10:39:31.702Z,14.27
2022-11-06T10:42:05.156Z,14.16
2022-11-06T10:44:58.943Z,14.17
2022-11-06T10:47:59.412Z,14.22
2022-11-06T10:50:34.567Z,14.17
2022-11-06T10:53:08.481Z,14.15
2022-11-06T10:55:56.733Z,14.10
2022-11-06T10:58:27.208Z,14.12
2022-11-06T11:00:58.849Z,14.11
2022-11-06T11:03:32.940Z,14.16
2022-11-06T11:06:00.469Z,14.17
2022-11-06T11:08:42.258Z,14.22
2022-11-06T11:11:18.174Z,14.22
2022-11-06T11:13:47.644Z,14.27
2022-11-06T11:16:18.346Z,14.29
2022-11-06T11:18:46.528Z,14.31
2022-11-06T11:21:13.235Z,14.27
2022-11-06T11:23:39.966Z,14.24
2022-11-06T11:26:24.247Z,14.21
2022-11-06T11:28:57.446Z,14.22
2022-11-06T11:31:33.476Z,14.22
2022-11-06T11:34:03.891Z,14.28
2022-11-06T11:36:49.520Z,14.38
2022-11-06T11:39:17.603Z,14.44
2022-11-06T11:41:44.340Z,14.44
2022-11-06T11:44:11.035Z,14.43
2022-11-06T11:46:51.495Z,14.45
2022-11-06T11:49:28.483Z,14.46
2022-11-06T11:51:56.549Z,14.52
2022-11-06T11:54:26.299Z,14.58
2022-11-06T11:57:04.649Z,14.60
2022-11-06T11:59:47.940Z,14.64
2022-11-06T12:02:30.951Z,14.70
2022-11-06T12:05:04.436Z,14.64
2022-11-06T12:07:33.356Z,14.63
2022-11-06T12:10:00.499Z,14.67
2022-11-06T12:12:31.415Z,14.77
2022-11-06T12:15:10.189Z,14.81
2022-11-06T12:17:38.149Z,14.69
2022-11-06T12:20:14.986Z,14.65
2022-11-06T12:22:44.816Z,14.62
2022-11-06T12:25:26.079Z,14.61
2022-11-06T12:27:59.595Z,14.54
2022-11-06T12:30:26.624Z,14.45
2022-11-06T12:33:16.589Z,14.46
2022-11-06T12:36:05.440Z,14.33
2022-11-06T12:38:41.499Z,14.28
2022-11-06T12:41:19.343Z,14.29
2022-11-06T12:43:50.667Z,14.24
2022-11-06T12:46:23.471Z,14.23
2022-11-06T12:49:11.487Z,14.17
2022-11-06T12:51:47.917Z,14.01
2022-11-06T12:54:17.639Z,13.95
2022-11-06T12:56:58.355Z,14.08
2022-11-06T12:59:43.661Z,14.14
2022-11-06T13:02:25.172Z,14.23
2022-11-06T13:05:10.704Z,14.24
2022-11-06T13:07:52.544Z,14.24
2022-11-06T13:10:26.668Z,14.29
2022-11-06T13:13:21.046Z,14.39
2022-11-06T13:16:09.219Z,14.40
2022-11-06T13:18:43.127Z,14.34
2022-11-06T13:21:18.859Z,14.34
2022-11-06T13:23:55.851Z,14.27
2022-11-06T13:26:42.930Z,14.16
2022-11-06T13:29:12.849Z,14.17
2022-11-06T13:31:52.242Z,14.21
2022-11-06T13:34:22.999Z,14.19
2022-11-06T13:36:49.798Z,14.14
2022-11-06T13:39:19.597Z,14.05
2022-11-06T13:41:46.363Z,14.05
2022-11-06T13:44:16.493Z,14.12
2022-11-06T13:47:13.736Z,14.13
2022-11-06T13:49:49.788Z,14.06
2022-11-06T13:52:33.962Z,14.10
2022-11-06T13:55:16.021Z,14.07
2022-11-06T13:58:20.683Z,14.11
2022-11-06T14:01:08.708Z,14.02
2022-11-06T14:03:44.518Z,13.98
2022-11-06T14:06:28.010Z,14.07
2022-11-06T14:09:05.599Z,13.99
2022-11-06T14:11:36.078Z,14.01
2022-11-06T14:14:07.848Z,14.10
2022-11-06T14:16:37.526Z,14.16
2022-11-06T14:19:30.481Z,14.14
2022-11-06T14:22:09.568Z,14.13
2022-11-06T14:24:40.947Z,14.10
2022-11-06T14:27:12.390Z,14.13
2022-11-06T14:29:39.083Z,14.17
2022-11-06T14:32:23.846Z,14.18
2022-11-06T14:34:50.959Z,14.19
2022-11-06T14:37:30.763Z,14.15
2022-11-06T14:39:57.970Z,14.12
2022-11-06T14:42:27.355Z,14.05
2022-11-06T14:45:14.146Z,14.02
2022-11-06T14:47:49.852Z,13.93
2022-11-06T14:50:19.829Z,13.84
2022-11-06T14:52:49.612Z,13.78
2022-11-06T14:55:35.819Z,13.65
2022-11-06T14:58:18.321Z,13.60
2022-11-06T15:00:52.770Z,13.57
2022-11-06T15:03:57.015Z,13.54
2022-11-06T15:06:32.471Z,13.52
2022-11-06T15:09:12.358Z,13.56
2022-11-06T15:11:47.423Z,13.59
2022-11-06T15:14:14.617Z,13.55
2022-11-06T15:16:51.913Z,13.51
2022-11-06T15:19:21.994Z,13.34
2022-11-06T15:22:25.187Z,13.33
2022-11-06T15:25:00.512Z,13.34
2022-11-06T15:27:30.793Z,13.35
2022-11-06T15:29:59.099Z,13.27
2022-11-06T15:32:26.257Z,13.24
2022-11-06T15:35:26.345Z,13.15
2022-11-06T15:38:06.492Z,13.17
2022-11-06T15:40:39.036Z,13.18
2022-11-06T15:43:33.242Z,13.18
2022-11-06T15:46:12.260Z,13.11
2022-11-06T15:48:39.030Z,12.88
2022-11-06T15:51:28.021Z,12.79
2022-11-06T15:53:55.792Z,12.73
2022-11-06T15:56:33.786Z,12.72
2022-11-06T15:59:14.664Z,12.79
2022-11-06T16:01:42.354Z,12.84
2022-11-06T16:04:16.934Z,12.85
2022-11-06T16:06:47.652Z,12.87
2022-11-06T16:09:18.416Z,12.94
2022-11-06T16:11:46.671Z,13.02
2022-11-06T16:14:14.700Z,13.07
2022-11-06T16:16:45.407Z,13.06
2022-11-06T16:19:30.175Z,13.12
2022-11-06T16:22:15.731Z,13.12
2022-11-06T16:25:17.739Z,13.10
2022-11-06T16:27:44.854Z,13.10
2022-11-06T16:30:25.265Z,13.19
2022-11-06T16:32:52.725Z,13.17
2022-11-06T16:35:37.861Z,13.24
2022-11-06T16:38:39.691Z,13.24
2022-11-06T16:41:04.712Z,13.26
2022-11-06T16:43:31.616Z,13.29
2022-11-06T16:46:01.182Z,13.33
2022-11-06T16:48:34.651Z,13.37
2022-11-06T16:51:32.616Z,13.41
2022-11-06T16:54:00.652Z,13.43
2022-11-06T16:56:29.904Z,13.41
2022-11-06T16:59:16.424Z,13.35
2022-11-06T17:01:45.252Z,13.32
2022-11-06T17:04:31.638Z,13.26
2022-11-06T17:06:58.808Z,13.28
2022-11-06T17:09:38.876Z,13.21
2022-11-06T17:12:10.328Z,13.22
2022-11-06T17:14:37.156Z,13.23
2022-11-06T17:17:04.318Z,13.24
2022-11-06T17:19:31.100Z,13.25
2022-11-06T17:21:58.225Z,13.25
2022-11-06T17:24:41.440Z,13.27
2022-11-06T17:27:08.311Z,13.25
2022-11-06T17:29:36.487Z,13.27
2022-11-06T17:32:04.049Z,13.29
2022-11-06T17:34:30.828Z,13.30
2022-11-06T17:36:57.611Z,13.32
2022-11-06T17:39:24.459Z,13.37
2022-11-06T17:41:51.186Z,13.40
2022-11-06T17:44:18.483Z,13.44
2022-11-06T17:46:46.536Z,13.47
2022-11-06T17:49:18.110Z,13.48
2022-11-06T17:51:59.998Z,13.49
2022-11-06T17:54:32.889Z,13.49
2022-11-06T17:57:01.925Z,13.48
2022-11-06T17:59:30.959Z,13.47
2022-11-06T18:01:58.015Z,13.36
2022-11-06T18:04:26.635Z,13.20
2022-11-06T18:06:54.079Z,13.13
2022-11-06T18:09:21.840Z,13.09
2022-11-06T18:11:50.113Z,13.05
2022-11-06T18:14:16.987Z,13.04
2022-11-06T18:16:44.251Z,12.98
2022-11-06T18:19:12.487Z,12.92
2022-11-06T18:21:39.251Z,12.80
2022-11-06T18:24:06.480Z,12.72
2022-11-06T18:26:33.296Z,12.67
2022-11-06T18:29:00.293Z,12.58
2022-11-06T18:31:27.089Z,12.60
2022-11-06T18:33:53.863Z,12.56
2022-11-06T18:36:20.665Z,12.50
2022-11-06T18:38:47.689Z,12.51
2022-11-06T18:41:19.281Z,12.54
2022-11-06T18:43:46.422Z,12.53
2022-11-06T18:46:15.023Z,12.56
2022-11-06T18:48:42.309Z,12.63
2022-11-06T18:51:27.779Z,12.62
2022-11-06T18:54:02.690Z,12.59
2022-11-06T18:56:30.007Z,12.60
2022-11-06T18:58:56.961Z,12.62
2022-11-06T19:01:23.965Z,12.59
2022-11-06T19:03:51.767Z,12.63
2022-11-06T19:06:19.988Z,12.62
2022-11-06T19:08:47.061Z,12.59
2022-11-06T19:11:15.870Z,12.60
2022-11-06T19:13:47.600Z,12.61
2022-11-06T19:16:18.584Z,12.60
2022-11-06T19:18:45.409Z,12.50
2022-11-06T19:21:12.414Z,12.41
2022-11-06T19:23:41.240Z,12.33
2022-11-06T19:26:30.015Z,12.30
2022-11-06T19:28:58.205Z,12.32
2022-11-06T19:31:29.229Z,12.33
2022-11-06T19:34:00.360Z,12.27
2022-11-06T19:36:27.948Z,12.28
2022-11-06T19:38:55.037Z,12.30
2022-11-06T19:41:21.831Z,12.33
2022-11-06T19:43:48.617Z,12.35
2022-11-06T19:46:36.255Z,12.38
2022-11-06T19:49:07.708Z,12.41
2022-11-06T19:51:34.970Z,12.42
2022-11-06T19:54:01.849Z,12.45
2022-11-06T19:56:28.657Z,12.41
2022-11-06T19:58:55.483Z,12.37
2022-11-06T20:01:22.468Z,12.25
2022-11-06T20:03:49.372Z,12.17
2022-11-06T20:06:16.662Z,12.05
2022-11-06T20:08:43.483Z,12.03
2022-11-06T20:11:14.542Z,11.96
2022-11-06T20:13:42.570Z,11.85
2022-11-06T20:16:12.064Z,11.78
2022-11-06T20:18:39.106Z,11.59
2022-11-06T20:21:08.438Z,11.52
2022-11-06T20:23:36.374Z,11.56
2022-11-06T20:26:04.729Z,11.56
2022-11-06T20:28:32.229Z,11.64
2022-11-06T20:30:59.877Z,11.69
2022-11-06T20:33:26.752Z,11.73
2022-11-06T20:35:53.490Z,11.81
2022-11-06T20:38:20.826Z,11.87
2022-11-06T20:40:47.576Z,11.92
2022-11-06T20:43:14.491Z,11.96
2022-11-06T20:45:41.686Z,11.98
2022-11-06T20:48:09.327Z,11.93
2022-11-06T20:50:36.152Z,11.91
2022-11-06T20:53:03.254Z,11.84
2022-11-06T20:55:30.219Z,11.69
2022-11-06T20:57:56.965Z,11.69
2022-11-06T21:00:23.710Z,11.71
2022-11-06T21:02:50.847Z,11.63
2022-11-06T21:05:17.678Z,11.72
2022-11-06T21:07:44.426Z,11.78
2022-11-06T21:10:12.280Z,11.73
2022-11-06T21:12:39.066Z,11.71
2022-11-06T21:15:06.380Z,11.77
2022-11-06T21:17:33.147Z,11.78
2022-11-06T21:20:00.109Z,11.75
2022-11-06T21:22:26.866Z,11.68
2022-11-06T21:24:53.623Z,11.65
2022-11-06T21:27:20.510Z,11.65
2022-11-06T21:29:50.276Z,11.65
2022-11-06T21:32:17.050Z,11.68
2022-11-06T21:34:43.858Z,11.66
2022-11-06T21:37:10.619Z,11.65
2022-11-06T21:39:37.576Z,11.58
2022-11-06T21:42:05.129Z,11.60
2022-11-06T21:44:31.864Z,11.51
2022-11-06T21:46:58.656Z,11.50
2022-11-06T21:49:25.360Z,11.56
2022-11-06T21:51:52.091Z,11.61
2022-11-06T21:54:37.410Z,11.58
2022-11-06T21:57:04.209Z,11.54
2022-11-06T21:59:31.067Z,11.54
2022-11-06T22:01:58.079Z,11.58
2022-11-06T22:04:25.042Z,11.62
2022-11-06T22:06:52.624Z,11.68
2022-11-06T22:09:24.474Z,11.74
2022-11-06T22:11:52.247Z,11.81
2022-11-06T22:14:18.987Z,11.85
2022-11-06T22:16:46.856Z,11.91
2022-11-06T22:19:14.899Z,11.90
2022-11-06T22:21:41.902Z,11.92
2022-11-06T22:24:11.477Z,11.92
2022-11-06T22:26:38.419Z,11.90
2022-11-06T22:29:07.858Z,11.91
2022-11-06T22:31:35.230Z,11.92
2022-11-06T22:34:02.271Z,11.87
2022-11-06T22:36:29.022Z,11.89
2022-11-06T22:38:56.725Z,11.81
2022-11-06T22:41:24.898Z,11.78
2022-11-06T22:43:52.167Z,11.77
2022-11-06T22:46:23.454Z,11.73
2022-11-06T22:48:51.260Z,11.77
2022-11-06T22:51:26.597Z,11.75
2022-11-06T22:53:53.892Z,11.78
2022-11-06T22:56:21.661Z,11.76
2022-11-06T22:58:53.178Z,11.76
2022-11-06T23:01:21.927Z,11.76
2022-11-06T23:03:49.464Z,11.64
2022-11-06T23:06:16.476Z,11.62
2022-11-06T23:08:47.001Z,11.59
2022-11-06T23:11:14.919Z,11.57
2022-11-06T23:13:41.675Z,11.58
2022-11-06T23:16:11.019Z,11.58
2022-11-06T23:18:38.231Z,11.52
2022-11-06T23:21:23.228Z,11.49
2022-11-06T23:23:50.331Z,11.48
2022-11-06T23:26:18.624Z,11.47
2022-11-06T23:28:46.130Z,11.42
2022-11-06T23:31:14.655Z,11.47
2022-11-06T23:33:42.506Z,11.46
2022-11-06T23:36:11.813Z,11.48
2022-11-06T23:38:39.062Z,11.49
2022-11-06T23:41:25.877Z,11.48
2022-11-06T23:43:52.966Z,11.49
2022-11-06T23:46:21.525Z,11.49
2022-11-06T23:48:48.273Z,11.41
2022-11-06T23:51:15.148Z,11.38
2022-11-06T23:53:41.879Z,11.35
2022-11-06T23:56:12.699Z,11.24
2022-11-06T23:58:40.629Z,11.08
